Cowichan Bay, Canada
Current Conditions -  °F | °C
As of 12:00 PM on Sunday 21 Dec 2014 (Local Time) from CYYJ Reporting Station
Broken Clouds Broken Clouds  
Wind Chill: 52°   Ceiling: 21000
Heat Index: 52°   Visibility: 30mi
Dew Point: 43°   Wind: 3mph
Humidity: 71%   Direction: 190°S
Pressure: 29.9"   Gusts: NA
Location:  48.73°N, 123.62°W
Report Text: CYYJ 212000Z 19003KT 120V260 30SM FEW038 FEW060 SCT130 BKN210 11/06 A2990 RMK SC1SC1AC2CI3 SC TR SLP124
Loading
Personal Weather Stations






























Interactive Weather Map New forecast layout! Learn more

10-Day Weather Forecast

Advertisements
Track Severe Weather on mobile